Terminal Aerodrome Forecast
Issued by NWS Wilmington, OH

Current Version | Previous Version | Text Only | Print | Product List | Glossary Off
Versions: 1 2 3 4 5 6 7 8 9 10 11 12 13 14 15 16 17 18 19 20 21 22 23 24 25 26

000
FTUS41 KILN 172300
TAFDAY
TAF
KDAY 172338Z 1800/1824 25012KT P6SM VCSH SCT040
      TEMPO 1801/1805 BKN040
     FM180500 24012G18KT P6SM BKN035
     FM181400 25014G22KT P6SM VCSH BKN030=

USA.gov is the U.S. government's official web portal to all federal, state and local government web resources and services.